createdAt,value
2022-10-04T00:02:04.770Z,9.52
2022-10-04T00:05:03.437Z,9.51
2022-10-04T00:07:39.726Z,9.43
2022-10-04T00:13:29.288Z,9.43
2022-10-04T00:15:59.401Z,9.25
2022-10-04T00:18:39.384Z,9.16
2022-10-04T00:21:10.123Z,9.09
2022-10-04T00:23:42.387Z,8.95
2022-10-04T00:26:30.682Z,8.98
2022-10-04T00:29:26.746Z,8.78
2022-10-04T00:32:14.419Z,8.64
2022-10-04T00:34:56.157Z,8.49
2022-10-04T00:37:39.362Z,8.43
2022-10-04T00:40:18.161Z,8.31
2022-10-04T00:43:02.045Z,8.20
2022-10-04T00:45:56.442Z,8.08
2022-10-04T00:48:39.118Z,7.93
2022-10-04T00:51:24.675Z,7.92
2022-10-04T00:54:23.328Z,7.86
2022-10-04T00:57:04.947Z,7.70
2022-10-04T00:59:47.382Z,7.75
2022-10-04T01:02:16.933Z,7.74
2022-10-04T01:05:37.433Z,7.90
2022-10-04T01:08:56.230Z,8.07
2022-10-04T01:11:28.565Z,7.99
2022-10-04T01:14:11.626Z,8.18
2022-10-04T01:16:42.205Z,8.40
2022-10-04T01:19:27.191Z,8.40
2022-10-04T01:22:13.421Z,8.64
2022-10-04T01:24:49.497Z,8.83
2022-10-04T01:27:40.540Z,8.91
2022-10-04T01:30:29.059Z,9.12
2022-10-04T01:33:08.291Z,9.18
2022-10-04T01:35:36.923Z,9.19
2022-10-04T01:38:13.419Z,9.09
2022-10-04T01:41:00.532Z,8.98
2022-10-04T01:43:40.696Z,8.89
2022-10-04T01:46:24.247Z,8.82
2022-10-04T01:48:55.338Z,8.76
2022-10-04T01:51:31.143Z,8.70
2022-10-04T01:54:18.663Z,8.59
2022-10-04T01:57:11.233Z,8.45
2022-10-04T02:00:01.952Z,8.59
2022-10-04T02:02:36.381Z,8.64
2022-10-04T02:05:21.412Z,8.74
2022-10-04T02:07:50.670Z,8.83
2022-10-04T02:10:21.309Z,8.77
2022-10-04T02:12:55.000Z,8.71
2022-10-04T02:15:27.738Z,8.57
2022-10-04T02:17:58.587Z,8.47
2022-10-04T02:20:35.359Z,8.63
2022-10-04T02:23:13.957Z,8.64
2022-10-04T02:25:43.941Z,8.79
2022-10-04T02:28:20.151Z,8.70
2022-10-04T02:31:12.577Z,8.66
2022-10-04T02:33:46.384Z,8.74
2022-10-04T02:36:19.287Z,8.79
2022-10-04T02:39:05.600Z,8.73
2022-10-04T02:41:40.350Z,8.58
2022-10-04T02:44:24.578Z,8.48
2022-10-04T02:47:09.537Z,8.44
2022-10-04T02:49:45.639Z,8.42
2022-10-04T02:52:43.535Z,8.37
2022-10-04T02:55:23.615Z,8.51
2022-10-04T02:57:55.664Z,8.45
2022-10-04T03:00:32.800Z,8.34
2022-10-04T03:03:34.752Z,8.33
2022-10-04T03:06:04.525Z,8.41
2022-10-04T03:09:00.081Z,8.43
2022-10-04T03:11:40.700Z,8.50
2022-10-04T03:14:20.550Z,8.52
2022-10-04T03:17:00.252Z,8.37
2022-10-04T03:19:36.660Z,8.49
2022-10-04T03:22:12.468Z,8.51
2022-10-04T03:24:50.575Z,8.44
2022-10-04T03:27:31.848Z,8.48
2022-10-04T03:30:10.515Z,8.45
2022-10-04T03:32:43.614Z,8.47
2022-10-04T03:35:48.814Z,8.49
2022-10-04T03:38:28.521Z,8.59
2022-10-04T03:41:02.199Z,8.61
2022-10-04T03:43:34.400Z,8.56
2022-10-04T03:46:09.135Z,8.67
2022-10-04T03:48:52.386Z,8.71
2022-10-04T03:51:29.771Z,8.76
2022-10-04T03:53:58.918Z,8.76
2022-10-04T03:56:35.341Z,8.61
2022-10-04T03:59:09.500Z,8.65
2022-10-04T04:01:44.524Z,8.73
2022-10-04T04:04:44.827Z,8.78
2022-10-04T04:07:41.374Z,8.60
2022-10-04T04:10:34.404Z,8.68
2022-10-04T04:13:23.133Z,8.70
2022-10-04T04:15:50.851Z,8.69
2022-10-04T04:18:23.915Z,8.56
2022-10-04T04:21:02.442Z,8.54
2022-10-04T04:23:36.745Z,8.77
2022-10-04T04:26:37.322Z,8.65
2022-10-04T04:29:12.010Z,8.66
2022-10-04T04:31:54.946Z,8.54
2022-10-04T04:34:34.978Z,8.47
2022-10-04T04:37:13.612Z,8.48
2022-10-04T04:39:56.226Z,8.36
2022-10-04T04:42:40.255Z,8.28
2022-10-04T04:45:25.895Z,8.11
2022-10-04T04:48:00.219Z,8.15
2022-10-04T04:50:36.736Z,8.09
2022-10-04T04:53:17.653Z,8.01
2022-10-04T04:56:10.194Z,8.02
2022-10-04T04:58:47.797Z,8.27
2022-10-04T05:01:28.607Z,8.36
2022-10-04T05:04:14.331Z,8.20
2022-10-04T05:07:03.005Z,8.28
2022-10-04T05:09:40.277Z,8.41
2022-10-04T05:12:10.106Z,8.55
2022-10-04T05:15:19.514Z,8.53
2022-10-04T05:17:51.038Z,8.60
2022-10-04T05:20:28.749Z,8.81
2022-10-04T05:23:16.208Z,8.89
2022-10-04T05:25:55.301Z,9.02
2022-10-04T05:28:35.509Z,9.29
2022-10-04T05:31:47.009Z,9.48
2022-10-04T05:34:27.256Z,9.49
2022-10-04T05:37:24.287Z,9.62
2022-10-04T05:40:13.485Z,9.82
2022-10-04T05:43:00.648Z,9.90
2022-10-04T05:45:31.897Z,9.99
2022-10-04T05:48:12.860Z,9.97
2022-10-04T05:50:51.420Z,10.00
2022-10-04T05:53:39.851Z,9.98
2022-10-04T05:56:42.425Z,10.08
2022-10-04T05:59:32.171Z,10.16
2022-10-04T06:02:41.225Z,10.36
2022-10-04T06:05:29.069Z,10.44
2022-10-04T06:08:35.349Z,10.54
2022-10-04T06:11:32.531Z,10.54
2022-10-04T06:14:30.910Z,10.52
2022-10-04T06:17:14.813Z,10.70
2022-10-04T06:20:04.872Z,10.81
2022-10-04T06:22:46.508Z,10.86
2022-10-04T06:25:38.924Z,10.91
2022-10-04T06:28:29.625Z,10.94
2022-10-04T06:31:26.020Z,10.95
2022-10-04T06:34:21.348Z,10.92
2022-10-04T06:37:26.543Z,10.86
2022-10-04T06:40:14.703Z,11.00
2022-10-04T06:43:02.444Z,11.09
2022-10-04T06:45:54.793Z,10.92
2022-10-04T06:48:58.996Z,10.86
2022-10-04T06:51:55.637Z,11.01
2022-10-04T06:54:55.655Z,10.98
2022-10-04T06:57:47.379Z,11.03
2022-10-04T07:00:27.740Z,11.14
2022-10-04T07:03:18.922Z,11.19
2022-10-04T07:05:59.600Z,11.20
2022-10-04T07:08:51.419Z,11.23
2022-10-04T07:11:33.030Z,11.36
2022-10-04T07:14:32.946Z,11.30
2022-10-04T07:17:14.320Z,11.41
2022-10-04T07:20:09.764Z,11.37
2022-10-04T07:23:03.289Z,11.59
2022-10-04T07:26:06.521Z,11.94
2022-10-04T07:29:03.560Z,12.28
2022-10-04T07:31:40.693Z,12.40
2022-10-04T07:34:33.076Z,12.45
2022-10-04T07:37:13.131Z,12.61
2022-10-04T07:40:05.230Z,12.66
2022-10-04T07:42:51.636Z,12.74
2022-10-04T07:45:45.006Z,12.71
2022-10-04T07:48:29.419Z,12.68
2022-10-04T07:51:22.278Z,12.75
2022-10-04T07:54:03.229Z,12.73
2022-10-04T07:56:45.810Z,12.66
2022-10-04T07:59:50.846Z,12.75
2022-10-04T08:02:55.397Z,12.63
2022-10-04T08:05:31.833Z,12.68
2022-10-04T08:08:22.597Z,12.57
2022-10-04T08:11:06.706Z,12.63
2022-10-04T08:13:47.496Z,12.67
2022-10-04T08:16:31.250Z,12.69
2022-10-04T08:19:37.057Z,12.62
2022-10-04T08:23:05.871Z,12.67
2022-10-04T08:25:55.580Z,12.68
2022-10-04T08:28:57.897Z,12.71
2022-10-04T08:31:44.153Z,12.74
2022-10-04T08:34:42.459Z,12.74
2022-10-04T08:40:44.891Z,12.93
2022-10-04T08:44:02.374Z,13.02
2022-10-04T08:46:51.509Z,13.18
2022-10-04T08:49:25.715Z,13.44
2022-10-04T08:51:58.072Z,13.76
2022-10-04T08:55:02.324Z,13.72
2022-10-04T08:58:07.067Z,13.71
2022-10-04T09:01:26.842Z,13.59
2022-10-04T09:04:23.234Z,13.84
2022-10-04T09:07:10.264Z,13.98
2022-10-04T09:09:49.910Z,14.15
2022-10-04T09:12:42.367Z,14.32
2022-10-04T09:15:48.895Z,14.44
2022-10-04T09:18:36.320Z,14.42
2022-10-04T09:21:41.624Z,14.65
2022-10-04T09:24:50.278Z,14.73
2022-10-04T09:27:57.026Z,14.95
2022-10-04T09:30:47.852Z,14.97
2022-10-04T09:33:35.069Z,14.82
2022-10-04T09:36:17.874Z,14.98
2022-10-04T09:39:29.886Z,14.94
2022-10-04T09:42:09.739Z,15.32
2022-10-04T09:44:59.320Z,15.38
2022-10-04T09:47:45.528Z,15.16
2022-10-04T09:50:50.113Z,15.03
2022-10-04T09:53:32.603Z,15.09
2022-10-04T09:56:57.459Z,14.96
2022-10-04T10:00:02.914Z,14.91
2022-10-04T10:03:16.285Z,14.78
2022-10-04T10:06:17.429Z,15.02
2022-10-04T10:09:44.358Z,15.12
2022-10-04T10:13:04.096Z,15.30
2022-10-04T10:16:01.809Z,15.38
2022-10-04T10:18:49.379Z,15.34
2022-10-04T10:21:59.761Z,15.36
2022-10-04T10:24:57.453Z,15.37
2022-10-04T10:28:03.862Z,15.37
2022-10-04T10:31:08.766Z,15.23
2022-10-04T10:34:09.822Z,15.35
2022-10-04T10:37:05.238Z,15.73
2022-10-04T10:40:05.597Z,15.53
2022-10-04T10:43:04.773Z,15.32
2022-10-04T10:45:51.754Z,15.29
2022-10-04T10:48:46.717Z,15.35
2022-10-04T10:52:32.027Z,15.16
2022-10-04T10:55:34.484Z,15.12
2022-10-04T10:58:47.025Z,15.11
2022-10-04T11:01:37.362Z,15.18
2022-10-04T11:04:46.209Z,15.16
2022-10-04T11:07:55.235Z,15.39
2022-10-04T11:11:02.552Z,15.96
2022-10-04T11:13:55.268Z,15.67
2022-10-04T11:17:01.375Z,15.45
2022-10-04T11:20:11.235Z,15.45
2022-10-04T11:23:20.182Z,15.79
2022-10-04T11:25:56.315Z,16.14
2022-10-04T11:29:00.434Z,16.06
2022-10-04T11:31:59.837Z,16.06
2022-10-04T11:34:51.003Z,16.08
2022-10-04T11:37:49.208Z,16.10
2022-10-04T11:40:46.176Z,16.11
2022-10-04T11:43:41.571Z,16.30
2022-10-04T11:46:27.450Z,16.26
2022-10-04T11:48:59.997Z,16.12
2022-10-04T11:51:56.553Z,15.99
2022-10-04T11:54:40.259Z,15.96
2022-10-04T11:57:37.722Z,16.17
2022-10-04T12:00:16.871Z,16.39
2022-10-04T12:03:19.224Z,16.42
2022-10-04T12:06:31.556Z,16.34
2022-10-04T12:09:29.884Z,16.55
2022-10-04T12:12:39.675Z,16.30
2022-10-04T12:15:22.005Z,16.59
2022-10-04T12:18:10.415Z,16.71
2022-10-04T12:21:22.042Z,16.91
2022-10-04T12:24:08.202Z,16.70
2022-10-04T12:27:43.365Z,17.16
2022-10-04T12:30:46.748Z,17.00
2022-10-04T12:33:23.763Z,16.94
2022-10-04T12:36:26.791Z,17.07
2022-10-04T12:39:08.574Z,16.96
2022-10-04T12:41:52.839Z,16.89
2022-10-04T12:44:31.457Z,17.05
2022-10-04T12:47:25.507Z,16.98
2022-10-04T12:50:20.203Z,16.86
2022-10-04T12:53:09.310Z,16.75
2022-10-04T12:56:16.086Z,16.62
2022-10-04T12:59:24.028Z,16.77
2022-10-04T13:02:03.937Z,16.92
2022-10-04T13:04:52.087Z,16.96
2022-10-04T13:07:49.597Z,17.06
2022-10-04T13:10:37.924Z,17.06
2022-10-04T13:13:28.851Z,17.20
2022-10-04T13:19:58.259Z,17.17
2022-10-04T13:22:55.442Z,17.13
2022-10-04T13:25:59.932Z,17.42
2022-10-04T13:28:48.628Z,17.45
2022-10-04T13:31:51.461Z,17.52
2022-10-04T13:34:51.804Z,17.76
2022-10-04T13:37:59.710Z,17.85
2022-10-04T13:41:13.144Z,17.90
2022-10-04T13:44:10.361Z,17.91
2022-10-04T13:46:57.306Z,17.82
2022-10-04T13:49:42.536Z,17.49
2022-10-04T13:53:06.975Z,17.39
2022-10-04T13:56:32.725Z,17.52
2022-10-04T13:59:34.618Z,17.74
2022-10-04T14:02:26.524Z,17.70
2022-10-04T14:05:18.229Z,17.76
2022-10-04T14:08:06.470Z,17.78
2022-10-04T14:11:04.564Z,17.57
2022-10-04T14:13:43.119Z,17.21
2022-10-04T14:16:35.975Z,17.05
2022-10-04T14:19:48.824Z,16.93
2022-10-04T14:22:34.011Z,16.86
2022-10-04T14:25:42.097Z,16.55
2022-10-04T14:31:49.833Z,16.31
2022-10-04T14:34:40.458Z,16.32
2022-10-04T14:37:39.385Z,16.33
2022-10-04T14:40:43.546Z,16.16
2022-10-04T14:43:30.021Z,16.06
2022-10-04T14:46:18.005Z,15.80
2022-10-04T14:49:16.368Z,15.79
2022-10-04T14:51:50.125Z,15.72
2022-10-04T14:54:25.959Z,15.65
2022-10-04T14:57:15.128Z,15.87
2022-10-04T15:00:09.836Z,16.07
2022-10-04T15:03:05.244Z,16.39
2022-10-04T15:05:54.883Z,16.43
2022-10-04T15:08:39.602Z,16.55
2022-10-04T15:11:50.434Z,16.30
2022-10-04T15:14:47.188Z,16.94
2022-10-04T15:17:30.310Z,17.69
2022-10-04T15:20:08.647Z,18.09
2022-10-04T15:22:57.667Z,18.57
2022-10-04T15:25:48.307Z,18.89
2022-10-04T15:28:48.545Z,19.28
2022-10-04T15:31:39.465Z,19.61
2022-10-04T15:34:26.437Z,18.92
2022-10-04T15:37:20.138Z,18.43
2022-10-04T15:40:44.136Z,18.25
2022-10-04T15:43:29.292Z,18.99
2022-10-04T15:46:17.201Z,19.41
2022-10-04T15:49:17.783Z,18.58
2022-10-04T15:52:17.132Z,17.59
2022-10-04T15:55:19.246Z,16.87
2022-10-04T15:58:09.660Z,16.24
2022-10-04T16:01:13.264Z,15.81
2022-10-04T16:03:59.124Z,15.46
2022-10-04T16:06:45.463Z,15.12
2022-10-04T16:09:37.021Z,14.86
2022-10-04T16:12:37.514Z,14.62
2022-10-04T16:15:19.493Z,14.45
2022-10-04T16:18:15.164Z,14.25
2022-10-04T16:21:06.258Z,14.02
2022-10-04T16:23:40.049Z,13.90
2022-10-04T16:26:27.365Z,13.63
2022-10-04T16:29:38.545Z,13.45
2022-10-04T16:32:15.828Z,13.22
2022-10-04T16:35:01.480Z,13.01
2022-10-04T16:37:46.490Z,12.82
2022-10-04T16:40:33.743Z,12.63
2022-10-04T16:43:28.518Z,12.49
2022-10-04T16:46:23.234Z,12.32
2022-10-04T16:49:13.073Z,12.17
2022-10-04T16:52:08.222Z,12.03
2022-10-04T16:55:02.212Z,11.81
2022-10-04T16:57:41.280Z,11.74
2022-10-04T17:00:38.449Z,11.52
2022-10-04T17:03:22.601Z,11.40
2022-10-04T17:06:13.475Z,11.29
2022-10-04T17:09:23.110Z,11.17
2022-10-04T17:12:43.058Z,10.98
2022-10-04T17:15:30.908Z,10.87
2022-10-04T17:18:22.976Z,10.74
2022-10-04T17:21:16.235Z,10.68
2022-10-04T17:23:55.732Z,10.59
2022-10-04T17:27:05.585Z,10.47
2022-10-04T17:30:11.965Z,10.35
2022-10-04T17:33:15.478Z,10.28
2022-10-04T17:36:00.260Z,10.17
2022-10-04T17:39:00.708Z,10.14
2022-10-04T17:42:04.067Z,10.03
2022-10-04T17:45:07.923Z,9.91
2022-10-04T17:48:15.005Z,9.84
2022-10-04T17:51:13.726Z,9.75
2022-10-04T17:54:14.734Z,9.71
2022-10-04T17:57:15.322Z,9.55
2022-10-04T17:59:56.155Z,9.50
2022-10-04T18:03:10.676Z,9.35
2022-10-04T18:05:57.264Z,9.33
2022-10-04T18:08:55.107Z,9.26
2022-10-04T18:12:00.111Z,9.20
2022-10-04T18:14:35.876Z,9.18
2022-10-04T18:17:19.359Z,9.10
2022-10-04T18:20:26.347Z,9.00
2022-10-04T18:23:29.414Z,8.93
2022-10-04T18:26:18.299Z,8.84
2022-10-04T18:28:59.616Z,8.76
2022-10-04T18:31:41.395Z,8.71
2022-10-04T18:34:18.876Z,8.66
2022-10-04T18:36:54.121Z,8.61
2022-10-04T18:39:29.910Z,8.57
2022-10-04T18:42:28.210Z,8.50
2022-10-04T18:45:25.986Z,8.46
2022-10-04T18:48:21.966Z,8.41
2022-10-04T18:51:26.245Z,8.35
2022-10-04T18:54:16.885Z,8.29
2022-10-04T18:57:24.166Z,8.18
2022-10-04T19:00:33.127Z,8.10
2022-10-04T19:03:18.776Z,8.02
2022-10-04T19:06:11.713Z,7.92
2022-10-04T19:09:16.194Z,7.85
2022-10-04T19:12:10.135Z,7.78
2022-10-04T19:15:03.350Z,7.71
2022-10-04T19:17:50.278Z,7.65
2022-10-04T19:20:42.692Z,7.59
2022-10-04T19:23:40.409Z,7.46
2022-10-04T19:26:38.801Z,7.43
2022-10-04T19:29:08.558Z,7.38
2022-10-04T19:32:01.534Z,7.29
2022-10-04T19:35:10.059Z,7.17
2022-10-04T19:38:06.217Z,7.13
2022-10-04T19:40:47.746Z,7.10
2022-10-04T19:43:48.404Z,7.00
2022-10-04T19:46:53.458Z,6.94
2022-10-04T19:49:53.830Z,6.87
2022-10-04T19:56:01.455Z,6.76
2022-10-04T19:58:40.332Z,6.71
2022-10-04T20:01:17.940Z,6.69
2022-10-04T20:04:17.288Z,6.64
2022-10-04T20:07:27.189Z,6.53
2022-10-04T20:10:12.385Z,6.51
2022-10-04T20:13:32.408Z,6.52
2022-10-04T20:16:06.972Z,6.49
2022-10-04T20:19:02.194Z,6.48
2022-10-04T20:21:39.556Z,6.41
2022-10-04T20:24:39.525Z,6.42
2022-10-04T20:27:36.675Z,6.38
2022-10-04T20:30:19.595Z,6.32
2022-10-04T20:33:08.610Z,6.27
2022-10-04T20:36:24.870Z,6.21
2022-10-04T20:39:09.119Z,6.17
2022-10-04T20:42:21.582Z,6.12
2022-10-04T20:45:10.621Z,6.14
2022-10-04T20:47:54.921Z,6.09
2022-10-04T20:50:37.445Z,6.06
2022-10-04T20:53:27.459Z,6.01
2022-10-04T20:56:24.785Z,5.98
2022-10-04T20:58:59.728Z,5.98
2022-10-04T21:01:49.683Z,5.98
2022-10-04T21:04:44.434Z,5.98
2022-10-04T21:07:24.447Z,5.93
2022-10-04T21:10:07.457Z,5.86
2022-10-04T21:12:50.030Z,5.82
2022-10-04T21:15:33.019Z,5.82
2022-10-04T21:18:12.039Z,5.71
2022-10-04T21:20:54.762Z,5.73
2022-10-04T21:23:38.158Z,5.79
2022-10-04T21:26:26.631Z,5.74
2022-10-04T21:29:11.273Z,5.68
2022-10-04T21:31:53.704Z,5.64
2022-10-04T21:34:48.699Z,5.62
2022-10-04T21:37:38.217Z,5.62
2022-10-04T21:40:08.784Z,5.59
2022-10-04T21:42:39.392Z,5.54
2022-10-04T21:45:12.417Z,5.55
2022-10-04T21:47:47.656Z,5.53
2022-10-04T21:50:22.917Z,5.49
2022-10-04T21:53:01.094Z,5.44
2022-10-04T21:55:34.280Z,5.40
2022-10-04T21:58:22.923Z,5.38
2022-10-04T22:01:00.009Z,5.32
2022-10-04T22:03:35.167Z,5.32
2022-10-04T22:06:10.103Z,5.32
2022-10-04T22:08:53.818Z,5.26
2022-10-04T22:11:32.183Z,5.24
2022-10-04T22:14:09.372Z,5.23
2022-10-04T22:16:43.752Z,5.24
2022-10-04T22:19:19.213Z,5.26
2022-10-04T22:22:01.282Z,5.27
2022-10-04T22:24:41.643Z,5.21
2022-10-04T22:27:20.083Z,5.15
2022-10-04T22:29:57.995Z,5.06
2022-10-04T22:32:37.394Z,5.03
2022-10-04T22:35:14.474Z,5.00
2022-10-04T22:37:48.609Z,4.98
2022-10-04T22:40:31.739Z,4.92
2022-10-04T22:43:14.319Z,4.85
2022-10-04T22:48:49.173Z,4.82
2022-10-04T22:51:27.267Z,4.79
2022-10-04T22:54:00.360Z,4.76
2022-10-04T22:56:35.470Z,4.71
2022-10-04T22:59:13.163Z,4.67
2022-10-04T23:01:48.504Z,4.67
2022-10-04T23:04:25.292Z,4.61
2022-10-04T23:07:01.287Z,4.62
2022-10-04T23:09:37.228Z,4.61
2022-10-04T23:12:12.366Z,4.62
2022-10-04T23:14:50.440Z,4.64
2022-10-04T23:17:25.231Z,4.63
2022-10-04T23:20:09.224Z,4.67
2022-10-04T23:22:48.520Z,4.56
2022-10-04T23:25:30.349Z,4.54
2022-10-04T23:28:13.314Z,4.51
2022-10-04T23:30:45.545Z,4.51
2022-10-04T23:33:22.638Z,4.47
2022-10-04T23:35:57.037Z,4.47
2022-10-04T23:38:41.225Z,4.47
2022-10-04T23:41:21.752Z,4.39
2022-10-04T23:44:02.814Z,4.34
2022-10-04T23:46:37.995Z,4.29
2022-10-04T23:49:18.137Z,4.19
2022-10-04T23:51:56.659Z,4.25
2022-10-04T23:54:29.384Z,4.23
2022-10-04T23:57:06.718Z,4.20
